createdAt,value
2023-02-22T00:00:01.571Z,-63
2023-02-22T00:05:03.118Z,-63
2023-02-22T00:10:09.101Z,-63
2023-02-22T00:15:13.356Z,-63
2023-02-22T00:20:19.961Z,-64
2023-02-22T00:25:24.168Z,-64
2023-02-22T00:30:28.440Z,-66
2023-02-22T00:35:31.204Z,-63
2023-02-22T00:40:34.777Z,-63
2023-02-22T00:45:37.680Z,-62
2023-02-22T00:50:39.315Z,-62
2023-02-22T00:55:40.880Z,-62
2023-02-22T01:00:43.348Z,-63
2023-02-22T01:05:44.987Z,-61
2023-02-22T01:10:46.815Z,-62
2023-02-22T01:15:48.491Z,-63
2023-02-22T01:20:50.267Z,-62
2023-02-22T01:25:52.101Z,-63
2023-02-22T01:30:56.365Z,-62
2023-02-22T01:35:59.780Z,-62
2023-02-22T01:41:01.350Z,-64
2023-02-22T01:46:05.431Z,-64
2023-02-22T01:51:12.670Z,-64
2023-02-22T01:56:15.333Z,-64
2023-02-22T02:01:19.845Z,-64
2023-02-22T02:06:21.961Z,-64
2023-02-22T02:11:26.048Z,-65
2023-02-22T02:16:39.289Z,-61
2023-02-22T02:21:49.960Z,-61
2023-02-22T02:26:54.446Z,-61
2023-02-22T02:32:14.926Z,-61
2023-02-22T02:37:34.512Z,-62
2023-02-22T02:42:45.133Z,-61
2023-02-22T02:47:53.608Z,-60
2023-02-22T02:53:00.758Z,-61
2023-02-22T02:58:06.069Z,-62
2023-02-22T03:03:43.622Z,-62
2023-02-22T03:09:14.338Z,-63
2023-02-22T03:14:37.464Z,-63
2023-02-22T03:19:56.905Z,-62
2023-02-22T03:25:14.772Z,-63
2023-02-22T03:30:21.585Z,-63
2023-02-22T03:35:30.912Z,-63
2023-02-22T03:40:43.446Z,-62
2023-02-22T03:45:48.929Z,-61
2023-02-22T03:50:51.189Z,-62
2023-02-22T03:55:58.353Z,-62
2023-02-22T04:01:00.174Z,-63
2023-02-22T04:06:01.728Z,-63
2023-02-22T04:11:03.808Z,-63
2023-02-22T04:16:06.414Z,-63
2023-02-22T04:21:09.432Z,-63
2023-02-22T04:26:10.933Z,-63
2023-02-22T04:31:12.567Z,-62
2023-02-22T04:36:16.098Z,-63
2023-02-22T04:41:19.194Z,-63
2023-02-22T04:46:20.935Z,-63
2023-02-22T04:51:22.488Z,-64
2023-02-22T04:56:24.253Z,-61
2023-02-22T05:01:25.749Z,-64
2023-02-22T05:06:27.267Z,-61
2023-02-22T05:11:29.088Z,-63
2023-02-22T05:16:30.807Z,-63
2023-02-22T05:21:32.306Z,-64
2023-02-22T05:26:33.824Z,-63
2023-02-22T05:31:35.419Z,-63
2023-02-22T05:36:37.112Z,-63
2023-02-22T05:41:38.662Z,-63
2023-02-22T05:46:40.199Z,-64
2023-02-22T05:51:42.281Z,-64
2023-02-22T05:56:43.839Z,-64
2023-02-22T06:01:45.444Z,-63
2023-02-22T06:06:46.960Z,-64
2023-02-22T06:11:48.442Z,-63
2023-02-22T06:16:54.828Z,-63
2023-02-22T06:22:00.097Z,-61
2023-02-22T06:27:02.547Z,-60
2023-02-22T06:32:04.499Z,-60
2023-02-22T06:37:06.165Z,-60
2023-02-22T06:42:07.735Z,-58
2023-02-22T06:47:09.341Z,-60
2023-02-22T06:52:10.895Z,-60
2023-02-22T06:57:12.390Z,-59
2023-02-22T07:02:14.025Z,-61
2023-02-22T07:07:15.726Z,-62
2023-02-22T07:12:17.289Z,-60
2023-02-22T07:17:18.781Z,-62
2023-02-22T07:22:20.335Z,-61
2023-02-22T07:27:22.708Z,-60
2023-02-22T07:32:24.494Z,-58
2023-02-22T07:37:26.124Z,-60
2023-02-22T07:42:27.637Z,-58
2023-02-22T07:47:29.181Z,-59
2023-02-22T07:52:30.660Z,-59
2023-02-22T07:57:33.288Z,-59
2023-02-22T08:02:34.789Z,-60
2023-02-22T08:07:40.046Z,-59
2023-02-22T08:12:41.775Z,-59
2023-02-22T08:17:43.458Z,-61
2023-02-22T08:22:45.672Z,-59
2023-02-22T08:27:48.222Z,-60
2023-02-22T08:32:50.543Z,-61
2023-02-22T08:37:55.105Z,-63
2023-02-22T08:42:57.196Z,-60
2023-02-22T08:47:59.530Z,-62
2023-02-22T08:53:04.224Z,-60
2023-02-22T08:58:09.412Z,-60
2023-02-22T09:03:14.488Z,-59
2023-02-22T09:08:17.680Z,-60
2023-02-22T09:13:19.509Z,-60
2023-02-22T09:18:21.307Z,-60
2023-02-22T09:23:22.789Z,-61
2023-02-22T09:28:25.049Z,-59
2023-02-22T09:33:26.670Z,-60
2023-02-22T09:38:30.141Z,-60
2023-02-22T09:43:51.918Z,-58
2023-02-22T09:49:15.313Z,-59
2023-02-22T09:54:25.097Z,-59
2023-02-22T09:59:40.688Z,-59
2023-02-22T10:05:05.843Z,-59
2023-02-22T10:10:13.925Z,-59
2023-02-22T10:15:28.291Z,-59
2023-02-22T10:20:54.756Z,-59
2023-02-22T10:26:09.799Z,-60
2023-02-22T10:31:22.373Z,-60
2023-02-22T10:36:26.200Z,-60
2023-02-22T10:41:34.438Z,-60
2023-02-22T10:46:40.153Z,-59
2023-02-22T10:51:41.641Z,-60
2023-02-22T10:56:49.287Z,-60
2023-02-22T11:01:50.854Z,-60
2023-02-22T11:07:01.840Z,-60
2023-02-22T11:12:16.642Z,-60
2023-02-22T11:17:31.160Z,-59
2023-02-22T11:22:41.171Z,-59
2023-02-22T11:27:46.944Z,-60
2023-02-22T11:32:56.857Z,-58
2023-02-22T11:38:21.158Z,-58
2023-02-22T11:43:22.854Z,-59
2023-02-22T11:48:24.669Z,-59
2023-02-22T11:53:45.396Z,-58
2023-02-22T11:59:00.127Z,-60
2023-02-22T12:04:33.302Z,-61
2023-02-22T12:10:13.584Z,-60
2023-02-22T12:15:28.944Z,-59
2023-02-22T12:20:43.789Z,-60
2023-02-22T12:26:01.752Z,-60
2023-02-22T12:31:23.554Z,-60
2023-02-22T12:36:33.346Z,-60
2023-02-22T12:41:44.950Z,-61
2023-02-22T12:46:51.025Z,-61
2023-02-22T12:52:21.396Z,-60
2023-02-22T12:57:48.340Z,-60
2023-02-22T13:03:04.724Z,-61
2023-02-22T13:08:13.487Z,-62
2023-02-22T13:13:21.910Z,-58
2023-02-22T13:18:39.180Z,-58
2023-02-22T13:24:16.099Z,-59
2023-02-22T13:29:28.796Z,-62
2023-02-22T13:34:48.930Z,-60
2023-02-22T13:39:54.734Z,-60
2023-02-22T13:45:19.641Z,-60
2023-02-22T13:50:36.787Z,-60
2023-02-22T13:55:41.118Z,-61
2023-02-22T14:00:46.966Z,-61
2023-02-22T14:05:53.833Z,-63
2023-02-22T14:11:00.666Z,-60
2023-02-22T14:16:05.243Z,-60
2023-02-22T14:21:20.496Z,-61
2023-02-22T14:26:34.880Z,-60
2023-02-22T14:31:46.780Z,-60
2023-02-22T14:36:56.466Z,-59
2023-02-22T14:42:21.991Z,-59
2023-02-22T14:47:30.437Z,-59
2023-02-22T14:52:36.954Z,-59
2023-02-22T14:58:03.361Z,-59
2023-02-22T15:03:05.109Z,-59
2023-02-22T15:08:08.992Z,-60
2023-02-22T15:13:33.593Z,-59
2023-02-22T15:18:44.999Z,-62
2023-02-22T15:23:55.357Z,-61
2023-02-22T15:28:58.014Z,-61
2023-02-22T15:34:27.042Z,-59
2023-02-22T15:39:34.352Z,-59
2023-02-22T15:44:41.650Z,-60
2023-02-22T15:49:43.272Z,-61
2023-02-22T15:54:49.368Z,-61
2023-02-22T15:59:57.192Z,-60
2023-02-22T16:05:12.359Z,-60
2023-02-22T16:10:35.325Z,-61
2023-02-22T16:15:37.320Z,-60
2023-02-22T16:20:39.714Z,-60
2023-02-22T16:25:41.336Z,-61
2023-02-22T16:30:43.274Z,-61
2023-02-22T16:35:52.625Z,-60
2023-02-22T16:40:58.054Z,-59
2023-02-22T16:46:04.060Z,-60
2023-02-22T16:51:26.972Z,-60
2023-02-22T16:56:31.175Z,-60
2023-02-22T17:01:35.301Z,-59
2023-02-22T17:06:37.505Z,-60
2023-02-22T17:11:39.239Z,-59
2023-02-22T17:16:40.703Z,-60
2023-02-22T17:21:42.294Z,-58
2023-02-22T17:26:44.071Z,-60
2023-02-22T17:31:45.969Z,-59
2023-02-22T17:36:47.571Z,-60
2023-02-22T17:41:55.072Z,-60
2023-02-22T17:46:56.605Z,-61
2023-02-22T17:51:58.621Z,-64
2023-02-22T17:57:00.891Z,-61
2023-02-22T18:02:03.412Z,-62
2023-02-22T18:07:05.461Z,-62
2023-02-22T18:12:07.037Z,-61
2023-02-22T18:17:09.017Z,-59
2023-02-22T18:22:10.637Z,-61
2023-02-22T18:27:12.154Z,-61
2023-02-22T18:32:13.773Z,-61
2023-02-22T18:37:20.466Z,-62
2023-02-22T18:42:28.932Z,-60
2023-02-22T18:47:30.477Z,-58
2023-02-22T18:52:35.156Z,-67
2023-02-22T18:57:36.629Z,-66
2023-02-22T19:02:38.208Z,-68
2023-02-22T19:07:39.858Z,-63
2023-02-22T19:12:41.443Z,-65
2023-02-22T19:17:42.994Z,-61
2023-02-22T19:22:45.822Z,-63
2023-02-22T19:27:47.395Z,-61
2023-02-22T19:32:55.363Z,-60
2023-02-22T19:37:56.815Z,-60
2023-02-22T19:42:58.520Z,-61
2023-02-22T19:48:00.033Z,-60
2023-02-22T19:53:01.773Z,-60
2023-02-22T19:58:03.278Z,-60
2023-02-22T20:03:09.880Z,-59
2023-02-22T20:08:11.672Z,-60
2023-02-22T20:13:13.272Z,-60
2023-02-22T20:18:15.170Z,-60
2023-02-22T20:23:16.836Z,-62
2023-02-22T20:28:19.676Z,-61
2023-02-22T20:33:22.108Z,-63
2023-02-22T20:38:23.791Z,-60
2023-02-22T20:43:25.495Z,-62
2023-02-22T20:48:26.989Z,-61
2023-02-22T20:53:28.510Z,-61
2023-02-22T20:58:30.080Z,-60
2023-02-22T21:03:35.976Z,-61
2023-02-22T21:08:37.610Z,-61
2023-02-22T21:13:39.888Z,-60
2023-02-22T21:18:41.544Z,-61
2023-02-22T21:23:43.476Z,-60
2023-02-22T21:28:52.389Z,-64
2023-02-22T21:33:56.080Z,-66
2023-02-22T21:39:00.418Z,-65
2023-02-22T21:44:01.988Z,-67
2023-02-22T21:49:03.501Z,-66
2023-02-22T21:54:07.584Z,-68
2023-02-22T21:59:23.727Z,-69
2023-02-22T22:04:28.572Z,-68
2023-02-22T22:09:35.421Z,-69
2023-02-22T22:14:37.569Z,-69
2023-02-22T22:19:39.500Z,-67
2023-02-22T22:24:46.004Z,-64
2023-02-22T22:29:47.544Z,-66
2023-02-22T22:34:49.461Z,-67
2023-02-22T22:39:51.033Z,-69
2023-02-22T22:44:52.545Z,-69
2023-02-22T22:50:01.294Z,-67
2023-02-22T22:55:03.451Z,-67
2023-02-22T23:00:31.642Z,-66
2023-02-22T23:05:42.713Z,-65
2023-02-22T23:10:44.309Z,-64
2023-02-22T23:15:48.869Z,-66
2023-02-22T23:20:55.205Z,-65
2023-02-22T23:26:18.678Z,-65
2023-02-22T23:31:20.631Z,-65
2023-02-22T23:36:22.540Z,-66
2023-02-22T23:41:28.411Z,-62
2023-02-22T23:46:32.931Z,-68
2023-02-22T23:51:39.547Z,-68
2023-02-22T23:56:47.224Z,-65
